Time;durP1;ratioP1;P1;durP2;ratioP2;P2;SDS_P1;SDS_P2;PMS_P1;PMS_P2;Temp;Humidity;BMP_temperature;BMP_pressure;BME280_temperature;BME280_humidity;BME280_pressure;Samples;Min_cycle;Max_cycle;Signal;HPM_P1;HPM_P2
2023/07/26 00:00:53;;;;;;;3.13;2.20;;;16.10;60.80;;;;;;6245156;28;20250;-78
2023/07/26 00:03:58;;;;;;;2.37;2.27;;;16.00;60.80;;;;;;6243970;28;20238;-81
2023/07/26 00:07:01;;;;;;;2.50;2.40;;;16.00;60.70;;;;;;6241291;28;20242;-79
2023/07/26 00:10:06;;;;;;;2.63;2.43;;;16.00;60.60;;;;;;6241222;28;20331;-81
2023/07/26 00:13:10;;;;;;;4.67;2.67;;;15.90;60.70;;;;;;6241891;28;20280;-80
2023/07/26 00:16:13;;;;;;;3.60;2.73;;;15.80;60.90;;;;;;6244805;28;20631;-81
2023/07/26 00:19:19;;;;;;;5.93;2.80;;;15.80;61.50;;;;;;6252309;28;20237;-80
2023/07/26 00:22:22;;;;;;;2.60;2.50;;;15.70;61.70;;;;;;6234941;28;20231;-80
2023/07/26 00:25:25;;;;;;;2.93;2.63;;;15.60;61.90;;;;;;6251041;28;20307;-82
2023/07/26 00:28:30;;;;;;;2.77;2.53;;;15.60;62.20;;;;;;6238144;28;20781;-81
2023/07/26 00:31:33;;;;;;;3.33;2.80;;;15.60;62.20;;;;;;6247816;28;20231;-81
2023/07/26 00:34:36;;;;;;;2.53;2.43;;;15.50;62.50;;;;;;6244315;28;20234;-82
2023/07/26 00:37:40;;;;;;;4.77;2.73;;;15.40;62.50;;;;;;6251053;28;20726;-80
2023/07/26 00:40:44;;;;;;;2.90;2.67;;;15.30;62.60;;;;;;6240230;28;20303;-80
2023/07/26 00:43:48;;;;;;;2.17;2.17;;;15.20;62.60;;;;;;6253201;28;20231;-80
2023/07/26 00:46:52;;;;;;;3.13;2.70;;;15.20;62.60;;;;;;6230542;28;20689;-80
2023/07/26 00:49:55;;;;;;;4.00;2.20;;;15.10;62.50;;;;;;6249281;28;20240;-81
2023/07/26 00:52:58;;;;;;;3.10;2.57;;;15.00;62.50;;;;;;6231466;28;20238;-78
2023/07/26 00:56:01;;;;;;;4.77;2.73;;;15.00;62.70;;;;;;6258547;28;20318;-81
2023/07/26 00:59:06;;;;;;;2.83;2.60;;;15.00;62.60;;;;;;6236387;28;20332;-80
2023/07/26 01:02:09;;;;;;;3.37;2.70;;;14.90;62.80;;;;;;6237793;28;20781;-79
2023/07/26 01:05:14;;;;;;;3.30;2.63;;;14.90;63.00;;;;;;6243338;28;20234;-78
2023/07/26 01:08:27;;;;;;;4.07;2.73;;;14.80;63.20;;;;;;6248430;28;20285;-80
2023/07/26 01:11:38;;;;;;;2.50;2.30;;;14.70;63.30;;;;;;6251191;28;20731;-82
2023/07/26 01:14:48;;;;;;;2.70;2.47;;;14.70;63.20;;;;;;6248491;28;20723;-79
2023/07/26 01:18:07;;;;;;;6.50;3.33;;;14.60;63.50;;;;;;6247335;28;20348;-80
2023/07/26 01:21:10;;;;;;;4.33;2.57;;;14.50;63.50;;;;;;6251592;28;20227;-82
2023/07/26 01:24:15;;;;;;;2.70;2.50;;;14.50;63.60;;;;;;6243095;28;20241;-80
2023/07/26 01:27:18;;;;;;;3.97;2.63;;;14.50;63.80;;;;;;6237241;28;20725;-77
2023/07/26 01:30:22;;;;;;;2.87;2.33;;;14.40;64.10;;;;;;6252730;28;20231;-80
2023/07/26 01:33:27;;;;;;;3.50;2.70;;;14.30;64.10;;;;;;6238865;28;20376;-80
2023/07/26 01:36:33;;;;;;;2.60;2.43;;;14.30;64.50;;;;;;6256816;28;20677;-80
2023/07/26 01:39:39;;;;;;;4.07;2.53;;;14.20;64.60;;;;;;6248329;28;20328;-81
2023/07/26 01:42:42;;;;;;;6.33;2.63;;;14.10;64.80;;;;;;6231908;28;20715;-79
2023/07/26 01:45:45;;;;;;;2.63;2.43;;;14.00;64.70;;;;;;6241776;28;20235;-80
2023/07/26 01:48:49;;;;;;;2.73;2.60;;;14.00;64.80;;;;;;6247870;28;20237;-78
2023/07/26 01:51:52;;;;;;;3.23;2.50;;;14.00;65.30;;;;;;6259218;28;20638;-80
2023/07/26 01:54:57;;;;;;;2.87;2.67;;;13.90;65.30;;;;;;6247426;28;20254;-78
2023/07/26 01:58:00;;;;;;;3.30;3.00;;;13.90;65.50;;;;;;6265618;28;20284;-80
2023/07/26 02:01:04;;;;;;;4.07;3.20;;;13.90;65.60;;;;;;6264104;28;20359;-80
2023/07/26 02:04:07;;;;;;;2.97;2.63;;;13.80;65.80;;;;;;6273822;28;20242;-80
2023/07/26 02:07:11;;;;;;;2.77;2.57;;;13.80;65.70;;;;;;6274490;28;20597;-79
2023/07/26 02:10:16;;;;;;;4.10;2.97;;;13.80;66.00;;;;;;6252418;28;20254;-81
2023/07/26 02:13:19;;;;;;;4.47;3.10;;;13.70;66.20;;;;;;6281847;28;20278;-81
2023/07/26 02:16:22;;;;;;;4.43;2.80;;;13.70;66.30;;;;;;6280042;28;20310;-82
2023/07/26 02:19:25;;;;;;;4.17;2.83;;;13.70;66.50;;;;;;6251744;28;20316;-78
2023/07/26 02:22:28;;;;;;;3.87;2.70;;;13.70;66.50;;;;;;6269644;28;20229;-82
2023/07/26 02:25:33;;;;;;;2.80;2.60;;;13.70;66.50;;;;;;6274355;28;20230;-80
2023/07/26 02:28:36;;;;;;;3.30;3.00;;;13.60;66.80;;;;;;6266885;28;20229;-79
2023/07/26 02:31:39;;;;;;;3.57;2.97;;;13.60;66.80;;;;;;6274710;28;20244;-79
2023/07/26 02:34:42;;;;;;;2.93;2.60;;;13.60;66.80;;;;;;6263608;28;20244;-79
2023/07/26 02:37:45;;;;;;;3.30;2.87;;;13.60;66.90;;;;;;6251857;28;20264;-79
2023/07/26 02:40:50;;;;;;;3.20;3.00;;;13.50;66.90;;;;;;6257158;28;20369;-82
2023/07/26 02:43:55;;;;;;;3.73;3.10;;;13.50;67.00;;;;;;6269462;28;20319;-80
2023/07/26 02:46:58;;;;;;;3.23;2.93;;;13.50;67.00;;;;;;6273085;28;20250;-80
2023/07/26 02:50:04;;;;;;;4.40;3.13;;;13.40;67.20;;;;;;6262127;28;20241;-82
2023/07/26 02:53:07;;;;;;;3.23;2.90;;;13.30;67.40;;;;;;6275459;28;20233;-82
2023/07/26 02:56:12;;;;;;;3.37;3.00;;;13.30;67.50;;;;;;6279022;28;20906;-81
2023/07/26 02:59:15;;;;;;;2.80;2.70;;;13.30;67.50;;;;;;6256679;28;20276;-81
2023/07/26 03:02:18;;;;;;;6.43;3.57;;;13.30;67.50;;;;;;6278952;28;20244;-81
2023/07/26 03:05:21;;;;;;;4.57;2.80;;;13.30;67.70;;;;;;6274580;28;20233;-80
2023/07/26 03:08:24;;;;;;;4.83;2.90;;;13.30;67.60;;;;;;6273560;28;20291;-80
2023/07/26 03:11:29;;;;;;;3.93;3.40;;;13.10;67.90;;;;;;6274021;28;20917;-80
2023/07/26 03:14:34;;;;;;;5.43;3.50;;;13.10;68.20;;;;;;6261695;28;20743;-81
2023/07/26 03:17:37;;;;;;;3.40;3.10;;;13.10;68.20;;;;;;6271271;28;20834;-81
2023/07/26 03:20:45;;;;;;;3.50;3.20;;;13.10;68.60;;;;;;6253394;28;20229;-82
2023/07/26 03:23:48;;;;;;;4.63;3.10;;;13.10;68.50;;;;;;6265832;28;20234;-79
2023/07/26 03:26:53;;;;;;;2.90;2.80;;;13.10;68.50;;;;;;6271408;28;20241;-80
2023/07/26 03:29:56;;;;;;;5.40;3.60;;;13.10;68.80;;;;;;6261794;28;20244;-79
2023/07/26 03:32:59;;;;;;;3.70;3.40;;;13.10;68.60;;;;;;6250587;28;20249;-81
2023/07/26 03:36:02;;;;;;;3.73;3.40;;;13.10;68.50;;;;;;6274106;28;20246;-80
2023/07/26 03:39:05;;;;;;;7.40;3.37;;;13.20;68.60;;;;;;6257787;28;20324;-76
2023/07/26 03:42:10;;;;;;;3.50;3.03;;;13.10;68.50;;;;;;6261377;28;20882;-78
2023/07/26 03:45:13;;;;;;;5.13;3.37;;;13.20;68.70;;;;;;6261685;28;20745;-76
2023/07/26 03:48:16;;;;;;;7.33;3.30;;;13.10;68.90;;;;;;6260721;28;20710;-79
2023/07/26 03:51:19;;;;;;;3.60;3.30;;;13.20;68.90;;;;;;6250170;28;20844;-80
2023/07/26 03:54:22;;;;;;;3.77;3.47;;;13.20;69.00;;;;;;6249179;28;20296;-79
2023/07/26 03:57:27;;;;;;;3.73;3.53;;;13.20;68.90;;;;;;6257092;28;20791;-78
2023/07/26 04:00:30;;;;;;;6.27;3.70;;;13.20;69.00;;;;;;6266848;28;20316;-79
2023/07/26 04:03:34;;;;;;;4.50;3.47;;;13.30;69.10;;;;;;6272627;28;20236;-78
2023/07/26 04:06:37;;;;;;;3.53;3.23;;;13.30;69.00;;;;;;6256124;28;20233;-77
2023/07/26 04:09:40;;;;;;;5.57;3.33;;;13.20;69.30;;;;;;6262815;28;20309;-78
2023/07/26 04:12:45;;;;;;;3.80;3.43;;;13.20;69.40;;;;;;6251583;28;20237;-76
2023/07/26 04:15:48;;;;;;;4.70;3.67;;;13.20;69.30;;;;;;6257564;28;20359;-77
2023/07/26 04:18:51;;;;;;;4.53;3.70;;;13.30;69.50;;;;;;6262213;28;20230;-79
2023/07/26 04:21:54;;;;;;;5.43;4.17;;;13.30;69.60;;;;;;6256500;28;20251;-78
2023/07/26 04:24:59;;;;;;;5.23;3.37;;;13.30;69.30;;;;;;6263341;28;20259;-77
2023/07/26 04:28:04;;;;;;;4.27;3.40;;;13.30;69.30;;;;;;6281385;28;20317;-78
2023/07/26 04:31:07;;;;;;;12.17;4.07;;;13.50;69.20;;;;;;6280417;28;20245;-78
2023/07/26 04:34:12;;;;;;;4.63;3.87;;;13.50;69.10;;;;;;6255864;28;20240;-78
2023/07/26 04:37:15;;;;;;;3.90;3.63;;;13.50;69.00;;;;;;6260959;28;20242;-79
2023/07/26 04:40:18;;;;;;;4.33;3.63;;;13.50;69.30;;;;;;6265765;28;20375;-77
2023/07/26 04:43:23;;;;;;;4.63;3.47;;;13.60;68.80;;;;;;6272499;28;20271;-77
2023/07/26 04:46:26;;;;;;;3.93;3.53;;;13.60;69.00;;;;;;6262233;28;20721;-79
2023/07/26 04:49:29;;;;;;;4.63;3.40;;;13.60;68.90;;;;;;6281387;28;20262;-79
2023/07/26 04:52:37;;;;;;;5.80;3.43;;;13.70;68.70;;;;;;6271882;28;20237;-81
2023/07/26 04:55:43;;;;;;;3.40;3.10;;;13.80;68.50;;;;;;6282304;28;20229;-80
2023/07/26 04:58:48;;;;;;;3.67;3.13;;;13.80;68.30;;;;;;6287902;28;20887;-80
2023/07/26 05:01:54;;;;;;;7.60;3.50;;;13.90;68.40;;;;;;6288315;28;20218;-78
2023/07/26 05:04:57;;;;;;;4.00;3.67;;;13.80;68.40;;;;;;6298861;28;20260;-77
2023/07/26 05:08:01;;;;;;;3.27;3.10;;;13.90;68.10;;;;;;6293874;28;20449;-76
2023/07/26 05:11:05;;;;;;;4.53;3.37;;;14.00;67.90;;;;;;6290539;28;20234;-77
2023/07/26 05:14:09;;;;;;;4.33;3.30;;;14.10;67.90;;;;;;6294967;28;20255;-79
2023/07/26 05:17:12;;;;;;;3.57;3.27;;;14.20;67.50;;;;;;6310176;28;20237;-77
2023/07/26 05:20:15;;;;;;;3.80;3.50;;;14.20;67.70;;;;;;6291773;28;20238;-78
2023/07/26 05:23:19;;;;;;;3.60;3.37;;;14.20;67.50;;;;;;6310814;28;20230;-78
2023/07/26 05:26:23;;;;;;;4.80;3.33;;;14.20;67.50;;;;;;6309848;28;20232;-79
2023/07/26 05:29:27;;;;;;;5.40;3.60;;;14.20;67.70;;;;;;6294783;28;20218;-76
2023/07/26 05:32:30;;;;;;;3.97;3.33;;;14.20;67.80;;;;;;6297315;28;20249;-76
2023/07/26 05:35:33;;;;;;;6.63;3.37;;;14.20;67.70;;;;;;6286851;28;20218;-78
2023/07/26 05:38:37;;;;;;;5.33;3.30;;;14.10;67.90;;;;;;6269534;28;20237;-77
2023/07/26 05:41:40;;;;;;;3.93;2.93;;;14.10;67.90;;;;;;6281976;28;20237;-77
2023/07/26 05:44:44;;;;;;;6.07;3.97;;;14.30;68.00;;;;;;6294542;28;20432;-75
2023/07/26 05:47:48;;;;;;;8.00;3.70;;;14.50;67.80;;;;;;6275699;28;20238;-75
2023/07/26 05:50:51;;;;;;;7.70;3.30;;;14.70;67.00;;;;;;6280884;28;20263;-76
2023/07/26 05:53:54;;;;;;;3.40;3.20;;;15.00;66.60;;;;;;6259301;28;20282;-78
2023/07/26 05:56:59;;;;;;;3.37;3.17;;;15.20;66.10;;;;;;6271809;28;20238;-76
2023/07/26 06:00:05;;;;;;;4.83;3.13;;;15.50;65.80;;;;;;6264912;28;20284;-77
2023/07/26 06:03:12;;;;;;;8.40;3.47;;;15.40;64.90;;;;;;6263875;28;20239;-75
2023/07/26 06:06:15;;;;;;;5.23;3.30;;;15.20;65.80;;;;;;6264061;28;20350;-75
2023/07/26 06:09:21;;;;;;;3.83;3.33;;;15.30;65.30;;;;;;6259069;28;20478;-75
2023/07/26 06:12:24;;;;;;;3.63;3.20;;;15.30;65.30;;;;;;6271423;28;20294;-76
2023/07/26 06:15:29;;;;;;;3.37;3.07;;;15.50;65.40;;;;;;6270658;28;20227;-78
2023/07/26 06:18:32;;;;;;;3.93;3.30;;;15.60;64.90;;;;;;6255121;28;20235;-78
2023/07/26 06:21:36;;;;;;;3.20;2.90;;;15.80;64.60;;;;;;6241193;28;20235;-78
2023/07/26 06:24:39;;;;;;;5.10;3.23;;;16.00;64.30;;;;;;6240807;28;20231;-77
2023/07/26 06:27:42;;;;;;;5.97;3.27;;;16.10;63.60;;;;;;6228836;28;20717;-79
2023/07/26 06:30:46;;;;;;;3.30;3.10;;;16.20;63.60;;;;;;6238519;28;20310;-78
2023/07/26 06:33:50;;;;;;;3.63;3.17;;;16.60;63.30;;;;;;6230764;28;20336;-79
2023/07/26 06:36:53;;;;;;;6.27;3.50;;;16.50;63.00;;;;;;6235528;28;20241;-79
2023/07/26 06:39:57;;;;;;;7.37;3.07;;;16.70;62.90;;;;;;6240650;28;20230;-79
2023/07/26 06:43:00;;;;;;;3.77;3.10;;;17.00;62.40;;;;;;6227933;28;20765;-79
2023/07/26 06:46:04;;;;;;;6.30;3.83;;;17.00;62.20;;;;;;6247216;28;20287;-78
2023/07/26 06:49:08;;;;;;;3.47;3.20;;;17.20;61.40;;;;;;6236186;28;20239;-78
2023/07/26 06:52:11;;;;;;;5.17;3.10;;;17.40;61.30;;;;;;6222226;28;20258;-77
2023/07/26 06:55:14;;;;;;;4.00;2.63;;;17.60;61.10;;;;;;6241876;28;20238;-78
2023/07/26 06:58:17;;;;;;;3.03;2.83;;;17.70;60.70;;;;;;6252055;28;20237;-79
2023/07/26 07:01:22;;;;;;;2.73;2.57;;;17.80;60.20;;;;;;6242254;28;20772;-79
2023/07/26 07:04:27;;;;;;;4.93;2.47;;;17.60;59.80;;;;;;6231371;28;20239;-77
2023/07/26 07:07:30;;;;;;;5.53;2.80;;;17.80;59.30;;;;;;6231984;28;20263;-79
2023/07/26 07:10:34;;;;;;;4.80;2.50;;;17.70;60.20;;;;;;6250083;28;20245;-78
2023/07/26 07:13:37;;;;;;;3.70;2.63;;;18.00;59.60;;;;;;6239602;28;20820;-78
2023/07/26 07:16:42;;;;;;;2.37;2.17;;;17.80;59.20;;;;;;6230678;28;20243;-79
2023/07/26 07:19:45;;;;;;;2.57;2.27;;;18.00;58.60;;;;;;6230070;28;20262;-79
2023/07/26 07:22:52;;;;;;;2.53;2.33;;;17.80;59.10;;;;;;6231534;28;20246;-78
2023/07/26 07:25:56;;;;;;;3.03;2.30;;;17.80;58.90;;;;;;6235460;28;20235;-81
2023/07/26 07:28:59;;;;;;;2.27;2.13;;;18.10;58.60;;;;;;6246803;28;20757;-78
2023/07/26 07:32:04;;;;;;;4.87;2.80;;;18.20;58.10;;;;;;6231624;28;20334;-79
2023/07/26 07:35:23;;;;;;;3.20;2.40;;;18.20;58.30;;;;;;6235265;28;20231;-79
2023/07/26 07:38:26;;;;;;;2.80;2.60;;;18.00;58.70;;;;;;6247301;28;20296;-78
2023/07/26 07:41:29;;;;;;;2.97;2.87;;;18.00;59.90;;;;;;6235732;28;20286;-77
2023/07/26 07:44:33;;;;;;;2.97;2.77;;;18.40;59.30;;;;;;6226489;28;20263;-77
2023/07/26 07:47:38;;;;;;;2.70;2.33;;;18.40;59.20;;;;;;6249858;28;20229;-78
2023/07/26 07:50:41;;;;;;;2.53;2.13;;;18.10;59.00;;;;;;6218677;28;20647;-79
2023/07/26 07:53:48;;;;;;;2.60;2.40;;;17.80;59.30;;;;;;6231808;28;20314;-79
2023/07/26 07:56:51;;;;;;;2.60;2.43;;;17.60;59.00;;;;;;6233790;28;20249;-79
2023/07/26 07:59:54;;;;;;;2.33;2.10;;;17.50;59.40;;;;;;6270029;28;20237;-80
2023/07/26 08:03:03;;;;;;;2.43;2.23;;;17.80;60.20;;;;;;6246435;28;20234;-80
2023/07/26 08:06:06;;;;;;;2.00;1.80;;;18.00;58.70;;;;;;6283970;28;20487;-81
2023/07/26 08:09:09;;;;;;;2.30;2.20;;;18.00;58.10;;;;;;6286345;28;20226;-79
2023/07/26 08:12:12;;;;;;;2.23;2.13;;;18.20;57.20;;;;;;6300799;28;20244;-79
2023/07/26 08:15:15;;;;;;;2.40;2.30;;;18.40;56.60;;;;;;6308738;28;20221;-78
2023/07/26 08:18:20;;;;;;;3.23;2.13;;;18.50;56.20;;;;;;6292416;28;20230;-76
2023/07/26 08:21:23;;;;;;;2.30;2.20;;;18.60;57.00;;;;;;6293933;28;20246;-78
2023/07/26 08:24:26;;;;;;;3.60;2.30;;;18.30;57.40;;;;;;6293096;28;20248;-77
2023/07/26 08:27:31;;;;;;;2.73;2.53;;;18.10;57.50;;;;;;6302652;28;20282;-75
2023/07/26 08:30:34;;;;;;;2.50;2.30;;;18.30;57.50;;;;;;6304661;28;20318;-74
2023/07/26 08:33:39;;;;;;;2.60;2.40;;;18.50;56.50;;;;;;6302767;28;20225;-73
2023/07/26 08:36:42;;;;;;;2.57;2.40;;;18.70;56.40;;;;;;6289494;28;20230;-76
2023/07/26 08:39:45;;;;;;;2.97;2.63;;;18.90;56.00;;;;;;6301818;28;20261;-76
2023/07/26 08:42:48;;;;;;;2.70;2.50;;;19.00;55.40;;;;;;6259587;28;20230;-79
2023/07/26 08:45:52;;;;;;;2.63;2.43;;;18.70;55.80;;;;;;6305659;28;20245;-78
2023/07/26 08:49:01;;;;;;;3.00;2.77;;;18.60;55.80;;;;;;6292243;28;20238;-77
2023/07/26 08:52:05;;;;;;;3.97;2.40;;;18.70;56.20;;;;;;6308817;28;20277;-76
2023/07/26 08:55:10;;;;;;;2.40;2.20;;;18.80;56.50;;;;;;6290449;28;20277;-77
2023/07/26 08:58:13;;;;;;;2.67;2.50;;;18.60;56.40;;;;;;6274507;28;20219;-76
2023/07/26 09:01:16;;;;;;;2.17;2.07;;;18.90;56.70;;;;;;6302121;28;20264;-77
2023/07/26 09:04:21;;;;;;;2.47;2.30;;;19.00;56.40;;;;;;6299527;28;20309;-77
2023/07/26 09:07:24;;;;;;;2.53;2.40;;;19.10;56.30;;;;;;6315766;28;20225;-75
2023/07/26 09:10:29;;;;;;;2.70;2.50;;;19.20;56.10;;;;;;6307668;28;20241;-77
2023/07/26 09:13:32;;;;;;;2.90;2.57;;;18.90;56.40;;;;;;6313057;28;20226;-77
2023/07/26 09:16:35;;;;;;;2.30;2.20;;;18.90;56.80;;;;;;6298729;28;20257;-74
2023/07/26 09:19:40;;;;;;;3.03;2.80;;;19.00;56.30;;;;;;6297566;28;20248;-76
2023/07/26 09:22:43;;;;;;;2.63;2.47;;;18.50;57.30;;;;;;6295077;28;20221;-76
2023/07/26 09:25:47;;;;;;;4.43;2.40;;;18.60;57.90;;;;;;6311321;28;20249;-74
2023/07/26 09:28:53;;;;;;;2.27;2.10;;;18.60;56.40;;;;;;6262995;28;20263;-78
2023/07/26 09:31:57;;;;;;;2.40;2.30;;;18.70;55.60;;;;;;6259587;28;20935;-76
2023/07/26 09:35:05;;;;;;;2.30;2.20;;;18.90;55.70;;;;;;6259353;28;20994;-74
2023/07/26 09:38:12;;;;;;;1.77;1.77;;;19.30;54.10;;;;;;6259764;28;20290;-77
2023/07/26 09:41:23;;;;;;;2.97;2.27;;;19.50;54.60;;;;;;6256658;28;20242;-78
2023/07/26 09:44:26;;;;;;;2.20;2.00;;;19.70;54.10;;;;;;6252147;28;20336;-78
2023/07/26 09:47:36;;;;;;;2.10;2.00;;;19.20;54.00;;;;;;6233881;28;20243;-80
2023/07/26 09:50:46;;;;;;;2.27;2.23;;;19.10;54.70;;;;;;6231847;28;20255;-77
2023/07/26 09:53:56;;;;;;;2.60;2.50;;;18.90;55.40;;;;;;6234957;28;20235;-78
2023/07/26 09:57:00;;;;;;;2.90;2.43;;;19.20;55.20;;;;;;6252957;28;20229;-77
2023/07/26 10:00:06;;;;;;;2.27;2.07;;;19.50;54.80;;;;;;6230899;28;20263;-78
2023/07/26 10:03:11;;;;;;;3.93;2.30;;;19.90;53.80;;;;;;6229582;28;20243;-78
2023/07/26 10:06:17;;;;;;;2.10;2.10;;;19.50;53.70;;;;;;6244623;28;20326;-77
2023/07/26 10:09:22;;;;;;;3.80;2.23;;;19.10;54.70;;;;;;6220499;28;20862;-79
2023/07/26 10:12:29;;;;;;;2.80;2.60;;;19.10;55.10;;;;;;6247182;28;20328;-80
2023/07/26 10:15:33;;;;;;;2.27;2.17;;;19.30;54.70;;;;;;6239810;28;20601;-78
2023/07/26 10:18:36;;;;;;;2.93;2.20;;;19.60;54.10;;;;;;6242101;28;20296;-78
2023/07/26 10:21:43;;;;;;;2.37;2.20;;;19.60;54.10;;;;;;6236561;28;20246;-77
2023/07/26 10:24:49;;;;;;;2.30;2.10;;;19.70;53.70;;;;;;6243805;28;20239;-78
2023/07/26 10:27:53;;;;;;;2.40;2.20;;;19.50;54.50;;;;;;6227314;28;20239;-78
2023/07/26 10:30:57;;;;;;;1.90;1.87;;;19.70;54.20;;;;;;6236207;28;20239;-79
2023/07/26 10:34:00;;;;;;;3.97;2.20;;;19.90;53.90;;;;;;6246001;28;20333;-78
2023/07/26 10:37:16;;;;;;;2.10;2.00;;;20.30;52.60;;;;;;6219287;28;20235;-80
2023/07/26 10:40:31;;;;;;;2.30;2.10;;;20.30;52.20;;;;;;6238333;28;20326;-80
2023/07/26 10:43:41;;;;;;;2.00;2.00;;;19.70;51.80;;;;;;6227937;28;20242;-79
2023/07/26 10:46:52;;;;;;;2.87;2.63;;;19.70;53.50;;;;;;6224910;28;20243;-81
2023/07/26 10:50:04;;;;;;;2.23;2.10;;;20.00;53.30;;;;;;6240736;28;20236;-79
2023/07/26 10:53:32;;;;;;;2.07;1.97;;;20.10;52.90;;;;;;6237295;28;20965;-77
2023/07/26 10:56:36;;;;;;;3.23;2.40;;;20.30;52.50;;;;;;6260942;28;20234;-79
2023/07/26 10:59:50;;;;;;;2.07;2.00;;;20.50;51.90;;;;;;6260702;28;20229;-78
2023/07/26 11:03:02;;;;;;;2.37;2.20;;;20.40;52.20;;;;;;6235128;28;20242;-79
2023/07/26 11:06:06;;;;;;;2.37;2.17;;;20.30;52.20;;;;;;6259165;28;20886;-76
2023/07/26 12:09:54;;;;;;;4.60;2.90;;;18.40;58.30;;;;;;6226778;27;1525808;-79
2023/07/26 12:12:58;;;;;;;3.00;2.80;;;19.70;56.50;;;;;;6224015;28;20364;-78
2023/07/26 12:16:02;;;;;;;2.70;2.50;;;19.40;58.00;;;;;;6222990;28;20245;-81
2023/07/26 12:19:06;;;;;;;3.20;2.90;;;19.20;58.00;;;;;;6216571;28;20238;-78
2023/07/26 12:22:09;;;;;;;3.40;2.73;;;18.90;58.20;;;;;;6226055;28;20246;-80
2023/07/26 12:25:15;;;;;;;2.77;2.67;;;18.80;58.70;;;;;;6239575;28;20262;-78
2023/07/26 12:28:28;;;;;;;2.87;2.50;;;18.90;59.20;;;;;;6253863;28;20822;-81
2023/07/26 12:31:32;;;;;;;2.70;2.53;;;18.90;59.30;;;;;;6264837;28;20289;-81
2023/07/26 12:34:40;;;;;;;2.53;2.43;;;19.20;57.30;;;;;;6252596;28;20348;-80
2023/07/26 12:37:44;;;;;;;2.63;2.53;;;19.50;58.20;;;;;;6255796;28;20238;-77
2023/07/26 12:40:50;;;;;;;3.00;2.80;;;19.70;55.50;;;;;;6250639;28;20238;-79
2023/07/26 12:43:54;;;;;;;2.47;2.37;;;19.90;55.00;;;;;;6254886;28;20242;-77
2023/07/26 12:46:59;;;;;;;2.60;2.43;;;20.00;55.50;;;;;;6258471;28;20439;-79
2023/07/26 12:50:06;;;;;;;3.03;2.93;;;20.30;53.60;;;;;;6251153;28;20242;-79
2023/07/26 12:53:10;;;;;;;2.30;2.23;;;20.60;53.90;;;;;;6249056;28;20299;-75
2023/07/26 12:56:15;;;;;;;2.70;2.50;;;20.60;53.30;;;;;;6247854;28;20306;-79
2023/07/26 12:59:18;;;;;;;3.47;3.23;;;20.60;53.90;;;;;;6246704;28;20246;-78
2023/07/26 13:02:21;;;;;;;3.80;2.80;;;20.80;53.60;;;;;;6249751;28;20269;-79
2023/07/26 13:05:24;;;;;;;2.80;2.60;;;20.70;53.20;;;;;;6248877;28;20230;-79
2023/07/26 13:08:27;;;;;;;2.60;2.50;;;20.90;53.40;;;;;;6239277;28;20330;-79
2023/07/26 13:11:32;;;;;;;2.40;2.30;;;21.10;52.00;;;;;;6230072;28;20239;-80
2023/07/26 13:14:37;;;;;;;3.17;2.60;;;21.30;49.40;;;;;;6220027;28;20277;-83
2023/07/26 13:17:41;;;;;;;2.57;2.40;;;21.30;49.90;;;;;;6240077;28;20742;-79
2023/07/26 13:20:44;;;;;;;2.47;2.33;;;21.30;49.70;;;;;;6226187;28;20316;-81
2023/07/26 13:23:47;;;;;;;2.10;2.10;;;21.10;49.60;;;;;;6236060;28;20272;-79
2023/07/26 13:26:52;;;;;;;3.00;2.80;;;20.70;51.20;;;;;;6224685;28;20393;-80
2023/07/26 13:29:58;;;;;;;2.70;2.50;;;20.30;51.10;;;;;;6230021;28;20243;-80
2023/07/26 13:33:01;;;;;;;2.37;2.33;;;20.00;51.70;;;;;;6246234;28;20250;-74
2023/07/26 13:36:05;;;;;;;2.80;2.60;;;19.90;54.70;;;;;;6249565;28;20223;-79
2023/07/26 13:39:08;;;;;;;2.80;2.40;;;19.90;55.30;;;;;;6252148;28;20250;-77
2023/07/26 13:42:13;;;;;;;2.63;2.43;;;20.20;54.60;;;;;;6261032;28;20238;-77
2023/07/26 13:45:16;;;;;;;2.50;2.33;;;20.20;53.70;;;;;;6249370;28;20236;-80
2023/07/26 13:48:20;;;;;;;2.27;2.20;;;20.50;51.50;;;;;;6235890;28;20278;-79
2023/07/26 13:51:23;;;;;;;2.20;2.10;;;20.70;51.20;;;;;;6261782;28;20246;-76
2023/07/26 13:54:26;;;;;;;2.03;1.97;;;20.90;51.10;;;;;;6238532;28;20246;-79
2023/07/26 13:57:31;;;;;;;2.60;2.50;;;21.10;50.20;;;;;;6234004;28;20656;-81
2023/07/26 14:00:34;;;;;;;2.47;2.37;;;21.10;49.70;;;;;;6228002;28;20295;-81
2023/07/26 14:03:37;;;;;;;2.70;2.60;;;20.70;49.60;;;;;;6234937;28;20245;-77
2023/07/26 14:06:41;;;;;;;2.20;2.20;;;20.70;49.60;;;;;;6227175;28;20243;-77
2023/07/26 14:09:44;;;;;;;2.70;2.60;;;20.90;49.40;;;;;;6227405;28;20243;-79
2023/07/26 14:12:48;;;;;;;3.60;2.57;;;21.00;49.90;;;;;;6229040;28;20235;-79
2023/07/26 14:15:51;;;;;;;2.40;2.23;;;20.70;51.20;;;;;;6234686;28;20773;-77
2023/07/26 14:19:00;;;;;;;2.60;2.50;;;20.50;52.10;;;;;;6220323;28;20239;-79
2023/07/26 14:22:03;;;;;;;2.80;2.60;;;19.70;53.60;;;;;;6235974;28;20226;-80
2023/07/26 14:25:07;;;;;;;2.73;2.57;;;19.00;56.10;;;;;;6254769;28;20226;-78
2023/07/26 14:28:13;;;;;;;2.70;2.60;;;18.20;57.40;;;;;;6249583;28;20220;-77
2023/07/26 14:31:17;;;;;;;2.67;2.57;;;17.80;58.40;;;;;;6255659;28;20249;-79
2023/07/26 14:34:20;;;;;;;3.10;2.90;;;17.50;60.00;;;;;;6251402;28;20246;-77
2023/07/26 14:37:25;;;;;;;2.80;2.60;;;17.50;60.60;;;;;;6265143;28;20222;-79
2023/07/26 14:40:28;;;;;;;2.80;2.70;;;17.40;61.20;;;;;;6260224;28;20227;-78
2023/07/26 14:43:33;;;;;;;2.70;2.60;;;17.50;60.90;;;;;;6253720;28;20234;-77
2023/07/26 14:46:36;;;;;;;3.73;2.70;;;17.60;61.20;;;;;;6230502;28;20255;-77
2023/07/26 14:49:40;;;;;;;2.83;2.57;;;17.90;62.50;;;;;;6231677;28;20239;-78
2023/07/26 14:53:03;;;;;;;3.17;3.07;;;18.10;61.70;;;;;;6215481;28;20250;-79
2023/07/26 14:56:06;;;;;;;2.87;2.77;;;18.30;61.90;;;;;;6224129;28;20226;-79
2023/07/26 14:59:11;;;;;;;2.70;2.50;;;18.60;62.10;;;;;;6226632;28;20243;-80
2023/07/26 15:02:14;;;;;;;3.40;3.10;;;18.70;60.80;;;;;;6231538;28;20238;-81
2023/07/26 15:05:17;;;;;;;3.00;2.90;;;18.80;60.70;;;;;;6229347;28;20230;-79
2023/07/26 15:08:21;;;;;;;2.20;2.20;;;18.80;60.40;;;;;;6224294;28;20243;-81
2023/07/26 15:11:25;;;;;;;2.67;2.47;;;18.70;59.50;;;;;;6235712;28;20231;-78
2023/07/26 15:14:30;;;;;;;2.70;2.60;;;18.70;58.20;;;;;;6229846;28;20234;-78
2023/07/26 15:17:35;;;;;;;2.30;2.30;;;18.50;58.40;;;;;;6229742;28;20253;-78
2023/07/26 15:20:39;;;;;;;2.33;2.27;;;18.50;58.40;;;;;;6228416;28;20345;-81
2023/07/26 15:23:42;;;;;;;2.33;2.30;;;18.50;59.10;;;;;;6226246;28;20263;-78
2023/07/26 15:26:45;;;;;;;2.30;2.20;;;18.50;59.10;;;;;;6214937;28;20338;-78
2023/07/26 15:29:49;;;;;;;1.97;1.97;;;18.50;59.50;;;;;;6232668;28;20666;-80
2023/07/26 15:32:52;;;;;;;2.67;2.53;;;18.50;59.50;;;;;;6226285;28;20655;-78
2023/07/26 15:35:56;;;;;;;2.27;2.27;;;18.50;58.70;;;;;;6224254;28;20235;-80
2023/07/26 15:38:59;;;;;;;2.30;2.30;;;18.40;58.50;;;;;;6233460;28;20235;-79
2023/07/26 15:42:03;;;;;;;2.40;2.40;;;18.50;58.70;;;;;;6248273;28;20281;-77
2023/07/26 15:45:13;;;;;;;2.40;2.30;;;18.60;58.00;;;;;;6245943;28;20262;-79
2023/07/26 15:48:20;;;;;;;2.47;2.47;;;18.60;57.80;;;;;;6250497;28;20230;-79
2023/07/26 15:51:23;;;;;;;2.43;2.33;;;18.70;57.80;;;;;;6246649;28;20841;-80
2023/07/26 15:54:26;;;;;;;2.30;2.20;;;18.70;57.20;;;;;;6241364;28;20230;-76
2023/07/26 15:57:30;;;;;;;2.70;2.60;;;18.60;56.50;;;;;;6238448;28;20241;-80
2023/07/26 16:00:35;;;;;;;2.40;2.20;;;18.60;56.00;;;;;;6239195;28;20284;-78
2023/07/26 16:03:39;;;;;;;2.73;2.63;;;18.40;56.20;;;;;;6248208;28;20234;-80
2023/07/26 16:06:43;;;;;;;3.57;3.47;;;18.30;55.90;;;;;;6261219;28;20325;-77
2023/07/26 16:09:49;;;;;;;2.60;2.60;;;18.40;56.50;;;;;;6249368;28;20233;-78
2023/07/26 16:12:52;;;;;;;3.30;3.20;;;18.40;56.00;;;;;;6261657;28;20234;-78
2023/07/26 16:15:57;;;;;;;3.10;3.00;;;18.60;56.50;;;;;;6255516;28;20270;-79
2023/07/26 16:19:03;;;;;;;3.20;3.10;;;18.90;54.60;;;;;;6244079;28;20258;-77
2023/07/26 16:22:09;;;;;;;3.17;3.07;;;19.00;54.20;;;;;;6264315;28;20211;-78
2023/07/26 16:25:12;;;;;;;2.27;2.27;;;18.90;54.60;;;;;;6254604;28;20211;-81
2023/07/26 16:28:16;;;;;;;2.87;2.77;;;18.80;54.70;;;;;;6245629;28;20635;-80
2023/07/26 16:31:22;;;;;;;2.67;2.57;;;18.60;54.70;;;;;;6255594;28;20451;-81
2023/07/26 16:34:25;;;;;;;2.83;2.70;;;18.50;54.80;;;;;;6261152;28;20208;-81
2023/07/26 16:37:28;;;;;;;2.40;2.40;;;18.30;55.00;;;;;;6250955;28;20219;-78
2023/07/26 16:40:31;;;;;;;2.67;2.67;;;18.30;55.10;;;;;;6255297;28;20223;-79
2023/07/26 16:43:35;;;;;;;2.63;2.63;;;18.20;55.30;;;;;;6252965;28;20242;-79
2023/07/26 16:46:39;;;;;;;2.70;2.50;;;18.20;55.50;;;;;;6268427;28;20231;-80
2023/07/26 16:49:47;;;;;;;2.57;2.57;;;18.30;55.30;;;;;;6253258;28;20238;-80
2023/07/26 16:52:52;;;;;;;2.60;2.60;;;18.30;55.60;;;;;;6231954;28;20263;-80
2023/07/26 16:55:56;;;;;;;2.30;2.30;;;18.40;55.80;;;;;;6228652;28;20238;-80
2023/07/26 16:58:59;;;;;;;2.50;2.50;;;18.30;56.30;;;;;;6231328;28;20513;-81